Time,TemperatureF,DewpointF,PressureIn,WindDirection,WindDirectionDegrees,WindSpeedMPH,WindSpeedGustMPH,Humidity,HourlyPrecipIn,Conditions,Clouds,dailyrainin,SoftwareType,DateUTC
2013-04-19 00:00:00,79.0,53.3,30.03,North,0,0.0,0.0,41,0.00,,SCT120,0.00,VWS V14.01,2013-04-19 04:00:00,
2013-04-19 00:01:00,79.0,53.3,30.03,North,0,0.0,0.0,41,0.00,,SCT120,0.00,VWS V14.01,2013-04-19 04:01:00,
2013-04-19 00:06:00,78.8,53.1,30.03,North,0,0.0,0.0,41,0.00,,SCT120,0.00,VWS V14.01,2013-04-19 04:06:00,
2013-04-19 00:11:00,79.0,53.3,30.03,North,0,0.0,0.0,41,0.00,,SCT120,0.00,VWS V14.01,2013-04-19 04:11:00,
2013-04-19 00:16:00,78.8,53.1,30.03,North,0,0.0,0.0,41,0.00,,SCT120,0.00,VWS V14.01,2013-04-19 04:16:00,
2013-04-19 00:21:00,78.8,53.8,30.03,North,0,0.0,0.0,42,0.00,,SCT120,0.00,VWS V14.01,2013-04-19 04:21:00,
2013-04-19 00:26:00,78.6,53.6,30.03,North,0,0.0,0.0,42,0.00,,SCT120,0.00,VWS V14.01,2013-04-19 04:26:00,
2013-04-19 00:31:00,78.6,53.6,30.03,North,0,0.0,0.0,42,0.00,,SCT120,0.00,VWS V14.01,2013-04-19 04:31:00,
2013-04-19 00:36:00,78.6,53.6,30.03,North,0,0.0,0.0,42,0.00,,SCT120,0.00,VWS V14.01,2013-04-19 04:36:00,
2013-04-19 00:41:00,78.4,53.5,30.03,North,0,0.0,0.0,42,0.00,,SCT120,0.00,VWS V14.01,2013-04-19 04:41:00,
2013-04-19 00:46:00,78.4,53.5,30.03,North,0,0.0,0.0,42,0.00,,SCT120,0.00,VWS V14.01,2013-04-19 04:46:00,
2013-04-19 00:51:00,78.3,53.3,30.03,North,0,0.0,0.0,42,0.00,,SCT120,0.00,VWS V14.01,2013-04-19 04:51:00,
2013-04-19 00:56:00,78.1,53.2,30.03,North,0,0.0,0.0,42,0.00,,SCT120,0.00,VWS V14.01,2013-04-19 04:56:00,
2013-04-19 01:01:00,78.1,53.2,30.03,North,0,0.0,0.0,42,0.00,,SCT120,0.00,VWS V14.01,2013-04-19 05:01:00,
2013-04-19 01:06:00,78.3,53.3,30.03,North,0,0.0,0.0,42,0.00,,SCT120,0.00,VWS V14.01,2013-04-19 05:06:00,
2013-04-19 01:11:00,78.3,53.3,30.03,North,0,0.0,0.0,42,0.00,,SCT120,0.00,VWS V14.01,2013-04-19 05:11:00,
2013-04-19 01:16:00,78.3,53.3,30.03,North,0,0.0,0.0,42,0.00,,SCT120,0.00,VWS V14.01,2013-04-19 05:16:00,
2013-04-19 01:21:00,78.1,53.8,30.03,North,0,0.0,0.0,43,0.00,,SCT120,0.00,VWS V14.01,2013-04-19 05:21:00,
2013-04-19 01:26:00,78.3,54.0,30.03,North,0,0.0,0.0,43,0.00,,SCT120,0.00,VWS V14.01,2013-04-19 05:26:00,
2013-04-19 01:31:00,78.3,54.0,30.03,North,0,0.0,0.0,43,0.00,,SCT120,0.00,VWS V14.01,2013-04-19 05:31:00,
2013-04-19 01:36:00,78.3,54.6,30.03,North,0,0.0,0.0,44,0.00,,SCT120,0.00,VWS V14.01,2013-04-19 05:36:00,
2013-04-19 01:41:00,78.3,54.6,30.03,North,0,0.0,0.0,44,0.00,,SCT120,0.00,VWS V14.01,2013-04-19 05:41:00,
2013-04-19 01:46:00,78.3,55.2,30.03,North,0,0.0,0.0,45,0.00,,SCT120,0.00,VWS V14.01,2013-04-19 05:46:00,
2013-04-19 01:51:00,78.1,55.6,30.03,North,0,0.0,0.0,46,0.00,,SCT120,0.00,VWS V14.01,2013-04-19 05:51:00,
2013-04-19 01:56:00,77.9,56.7,30.03,North,0,0.0,0.0,48,0.00,,SCT120,0.00,VWS V14.01,2013-04-19 05:56:00,
2013-04-19 02:01:00,77.9,57.2,30.03,North,0,0.0,0.0,49,0.00,,SCT120,0.00,VWS V14.01,2013-04-19 06:01:00,
2013-04-19 02:06:00,77.7,58.2,30.03,North,0,0.0,0.0,51,0.00,,SCT120,0.00,VWS V14.01,2013-04-19 06:06:00,
2013-04-19 02:11:00,77.5,58.5,30.00,North,0,0.0,0.0,52,0.00,,SCT120,0.00,VWS V14.01,2013-04-19 06:11:00,
2013-04-19 02:16:00,77.4,58.9,30.00,North,0,0.0,0.0,53,0.00,,SCT120,0.00,VWS V14.01,2013-04-19 06:16:00,
2013-04-19 02:21:00,77.2,58.2,30.00,North,0,0.0,0.0,52,0.00,,SCT120,0.00,VWS V14.01,2013-04-19 06:21:00,
2013-04-19 02:26:00,77.2,57.7,30.00,North,0,0.0,0.0,51,0.00,,SCT120,0.00,VWS V14.01,2013-04-19 06:26:00,
2013-04-19 02:31:00,77.4,57.3,30.00,North,0,0.0,0.0,50,0.00,,SCT120,0.00,VWS V14.01,2013-04-19 06:31:00,
2013-04-19 02:36:00,77.4,56.7,30.00,North,0,0.0,0.0,49,0.00,,SCT120,0.00,VWS V14.01,2013-04-19 06:36:00,
2013-04-19 02:41:00,77.5,56.9,30.00,North,0,0.0,0.0,49,0.00,,SCT120,0.00,VWS V14.01,2013-04-19 06:41:00,
2013-04-19 02:46:00,77.5,56.3,30.00,North,0,0.0,0.0,48,0.00,,SCT120,0.00,VWS V14.01,2013-04-19 06:46:00,
2013-04-19 02:51:00,77.5,57.5,30.00,North,0,0.0,0.0,50,0.00,,SCT120,0.00,VWS V14.01,2013-04-19 06:51:00,
2013-04-19 02:56:00,77.4,63.3,30.00,North,0,0.0,0.0,62,0.08,,SCT120,0.08,VWS V14.01,2013-04-19 06:56:00,
2013-04-19 03:01:00,76.3,64.5,30.00,North,0,0.0,0.0,67,0.20,,SCT120,0.20,VWS V14.01,2013-04-19 07:01:00,
2013-04-19 03:06:00,75.6,65.1,30.00,North,0,0.0,0.0,70,0.20,,SCT120,0.20,VWS V14.01,2013-04-19 07:06:00,
2013-04-19 03:11:00,75.2,65.6,30.00,North,0,0.0,0.0,72,0.20,,SCT120,0.20,VWS V14.01,2013-04-19 07:11:00,
2013-04-19 03:16:00,74.7,65.0,30.00,North,0,0.0,0.0,72,0.24,,SCT120,0.24,VWS V14.01,2013-04-19 07:16:00,
2013-04-19 03:21:00,74.5,66.0,30.00,North,0,0.0,0.0,75,0.24,,SCT120,0.24,VWS V14.01,2013-04-19 07:21:00,
2013-04-19 03:26:00,74.5,66.4,30.00,North,0,0.0,0.0,76,0.28,,SCT120,0.28,VWS V14.01,2013-04-19 07:26:00,
2013-04-19 03:31:00,74.5,66.8,30.00,North,0,0.0,0.0,77,0.28,,SCT120,0.28,VWS V14.01,2013-04-19 07:31:00,
2013-04-19 03:36:00,74.5,66.8,30.00,North,0,0.0,0.0,77,0.28,,SCT120,0.28,VWS V14.01,2013-04-19 07:36:00,
2013-04-19 03:41:00,74.5,67.2,30.00,North,0,0.0,0.0,78,0.28,,SCT120,0.28,VWS V14.01,2013-04-19 07:41:00,
2013-04-19 03:46:00,74.7,67.3,30.00,North,0,0.0,0.0,78,0.28,,SCT120,0.28,VWS V14.01,2013-04-19 07:46:00,
2013-04-19 03:51:00,74.7,67.3,30.00,North,0,0.0,0.0,78,0.28,,SCT120,0.28,VWS V14.01,2013-04-19 07:51:00,
2013-04-19 03:57:00,74.7,67.3,30.00,North,0,0.0,0.0,78,0.28,,SCT120,0.28,VWS V14.01,2013-04-19 07:57:00,
2013-04-19 04:02:00,74.7,67.3,30.00,North,0,0.0,0.0,78,0.12,,SCT120,0.28,VWS V14.01,2013-04-19 08:02:00,
2013-04-19 04:07:00,74.7,67.3,30.00,North,0,0.0,0.0,78,0.12,,SCT120,0.28,VWS V14.01,2013-04-19 08:07:00,
2013-04-19 04:12:00,74.8,67.5,30.00,North,0,0.0,0.0,78,0.12,,SCT120,0.28,VWS V14.01,2013-04-19 08:12:00,
2013-04-19 04:17:00,74.7,67.3,30.00,North,0,0.0,0.0,78,0.12,,SCT120,0.28,VWS V14.01,2013-04-19 08:17:00,
2013-04-19 04:22:00,74.7,67.3,30.00,North,0,0.0,0.0,78,0.04,,SCT120,0.28,VWS V14.01,2013-04-19 08:22:00,
2013-04-19 04:27:00,74.7,67.3,30.00,North,0,0.0,0.0,78,0.04,,SCT120,0.28,VWS V14.01,2013-04-19 08:27:00,
2013-04-19 04:32:00,74.5,67.2,30.00,North,0,0.0,0.0,78,0.04,,SCT120,0.28,VWS V14.01,2013-04-19 08:32:00,
2013-04-19 04:37:00,74.7,67.3,30.00,North,0,0.0,0.0,78,0.04,,SCT120,0.28,VWS V14.01,2013-04-19 08:37:00,
2013-04-19 04:42:00,74.7,67.3,30.00,North,0,0.0,0.0,78,0.00,,SCT120,0.28,VWS V14.01,2013-04-19 08:42:00,
2013-04-19 04:47:00,74.7,67.3,30.00,North,0,0.0,0.0,78,0.00,,SCT120,0.28,VWS V14.01,2013-04-19 08:47:00,
2013-04-19 04:52:00,74.5,67.6,30.00,North,0,0.0,0.0,79,0.00,,SCT120,0.28,VWS V14.01,2013-04-19 08:52:00,
2013-04-19 04:57:00,74.5,67.6,30.00,North,0,0.0,0.0,79,0.00,,SCT120,0.28,VWS V14.01,2013-04-19 08:57:00,
2013-04-19 05:02:00,74.7,67.7,30.00,North,0,0.0,0.0,79,0.00,,SCT120,0.28,VWS V14.01,2013-04-19 09:02:00,
2013-04-19 05:07:00,74.7,67.7,30.00,North,0,0.0,0.0,79,0.00,,SCT120,0.28,VWS V14.01,2013-04-19 09:07:00,
2013-04-19 05:12:00,74.7,67.7,30.00,North,0,0.0,0.0,79,0.00,,SCT120,0.28,VWS V14.01,2013-04-19 09:12:00,
2013-04-19 05:17:00,74.7,67.7,30.00,North,0,0.0,0.0,79,0.00,,SCT120,0.28,VWS V14.01,2013-04-19 09:17:00,
2013-04-19 05:22:00,74.7,67.7,30.00,North,0,0.0,0.0,79,0.00,,SCT120,0.28,VWS V14.01,2013-04-19 09:22:00,
2013-04-19 05:27:00,74.5,67.6,30.00,North,0,0.0,0.0,79,0.00,,SCT120,0.28,VWS V14.01,2013-04-19 09:27:00,
2013-04-19 05:32:00,74.5,67.6,30.00,North,0,0.0,0.0,79,0.00,,SCT120,0.28,VWS V14.01,2013-04-19 09:32:00,
2013-04-19 05:37:00,74.7,67.7,30.00,North,0,0.0,0.0,79,0.00,,SCT120,0.28,VWS V14.01,2013-04-19 09:37:00,
2013-04-19 05:42:00,74.5,67.6,30.03,North,0,0.0,0.0,79,0.00,,SCT120,0.28,VWS V14.01,2013-04-19 09:42:00,
2013-04-19 05:47:00,74.3,67.4,30.03,North,0,0.0,0.0,79,0.00,,SCT120,0.28,VWS V14.01,2013-04-19 09:47:00,
2013-04-19 05:52:00,74.3,67.4,30.03,North,0,0.0,0.0,79,0.00,,SCT120,0.28,VWS V14.01,2013-04-19 09:52:00,
2013-04-19 05:57:00,74.5,67.6,30.00,North,0,0.0,0.0,79,0.00,,SCT120,0.28,VWS V14.01,2013-04-19 09:57:00,
2013-04-19 06:02:00,74.5,67.6,30.00,North,0,0.0,0.0,79,0.00,,SCT120,0.28,VWS V14.01,2013-04-19 10:02:00,
2013-04-19 06:07:00,74.3,67.4,30.00,North,0,0.0,0.0,79,0.00,,SCT120,0.28,VWS V14.01,2013-04-19 10:07:00,
2013-04-19 06:12:00,74.5,67.6,30.00,North,0,0.0,0.0,79,0.00,,SCT120,0.28,VWS V14.01,2013-04-19 10:12:00,
2013-04-19 06:17:00,74.3,67.4,30.00,North,0,0.0,0.0,79,0.00,,SCT120,0.28,VWS V14.01,2013-04-19 10:17:00,
2013-04-19 06:22:00,74.3,67.4,30.00,North,0,0.0,0.0,79,0.00,,SCT120,0.28,VWS V14.01,2013-04-19 10:22:00,
2013-04-19 06:27:00,74.3,67.4,30.03,North,0,0.0,0.0,79,0.00,,SCT120,0.28,VWS V14.01,2013-04-19 10:27:00,
2013-04-19 06:32:00,74.3,67.4,30.03,North,0,0.0,0.0,79,0.00,,SCT120,0.28,VWS V14.01,2013-04-19 10:32:00,
2013-04-19 06:37:00,74.3,67.4,30.03,North,0,0.0,0.0,79,0.00,,SCT120,0.28,VWS V14.01,2013-04-19 10:37:00,
2013-04-19 06:42:00,74.3,67.4,30.03,North,0,0.0,0.0,79,0.00,,SCT120,0.28,VWS V14.01,2013-04-19 10:42:00,
2013-04-19 06:47:00,74.3,67.4,30.03,North,0,0.0,0.0,79,0.00,,SCT120,0.28,VWS V14.01,2013-04-19 10:47:00,
2013-04-19 06:52:00,74.5,67.6,30.03,North,0,0.0,0.0,79,0.00,,SCT120,0.28,VWS V14.01,2013-04-19 10:52:00,
2013-04-19 06:57:00,74.8,68.3,30.03,North,0,0.0,0.0,80,0.00,,SCT120,0.28,VWS V14.01,2013-04-19 10:57:00,
2013-04-19 07:02:00,75.2,68.2,30.03,North,0,0.0,0.0,79,0.00,,SCT120,0.28,VWS V14.01,2013-04-19 11:02:00,
2013-04-19 07:07:00,75.7,68.8,30.03,North,0,0.0,0.0,79,0.00,,SCT120,0.28,VWS V14.01,2013-04-19 11:07:00,
2013-04-19 07:12:00,75.7,68.4,30.03,North,0,0.0,0.0,78,0.00,,SCT120,0.28,VWS V14.01,2013-04-19 11:12:00,
2013-04-19 07:17:00,76.1,67.2,30.03,North,0,0.0,0.0,74,0.00,,SCT120,0.28,VWS V14.01,2013-04-19 11:17:00,
2013-04-19 07:22:00,76.3,65.4,30.03,North,0,0.0,0.0,69,0.00,,SCT120,0.28,VWS V14.01,2013-04-19 11:22:00,
2013-04-19 07:27:00,76.5,65.1,30.03,North,0,0.0,0.0,68,0.00,,SCT120,0.28,VWS V14.01,2013-04-19 11:27:00,
2013-04-19 07:32:00,76.6,65.3,30.03,North,0,0.0,0.0,68,0.00,,SCT120,0.28,VWS V14.01,2013-04-19 11:32:00,
2013-04-19 07:37:00,77.0,64.3,30.03,North,0,0.0,0.0,65,0.00,,SCT120,0.28,VWS V14.01,2013-04-19 11:37:00,
2013-04-19 07:42:00,77.5,63.5,30.03,North,0,0.0,0.0,62,0.00,,SCT120,0.28,VWS V14.01,2013-04-19 11:42:00,
2013-04-19 07:47:00,77.7,64.1,30.03,North,0,0.0,0.0,63,0.00,,SCT120,0.28,VWS V14.01,2013-04-19 11:47:00,
2013-04-19 07:52:00,78.1,63.1,30.03,North,0,0.0,0.0,60,0.00,,SCT120,0.28,VWS V14.01,2013-04-19 11:52:00,
2013-04-19 07:57:00,78.3,62.8,30.03,North,0,0.0,0.0,59,0.00,,SCT120,0.28,VWS V14.01,2013-04-19 11:57:00,
2013-04-19 08:02:00,78.3,60.8,30.03,North,0,0.0,0.0,55,0.00,,SCT120,0.28,VWS V14.01,2013-04-19 12:02:00,
2013-04-19 08:07:00,78.4,61.5,30.03,North,0,0.0,0.0,56,0.00,,SCT120,0.28,VWS V14.01,2013-04-19 12:07:00,
2013-04-19 08:12:00,78.1,60.1,30.03,North,0,0.0,0.0,54,0.00,,SCT120,0.28,VWS V14.01,2013-04-19 12:12:00,
2013-04-19 08:17:00,77.7,60.8,30.03,North,0,0.0,0.0,56,0.00,,SCT120,0.28,VWS V14.01,2013-04-19 12:17:00,
2013-04-19 08:22:00,77.7,60.8,30.03,North,0,0.0,0.0,56,0.00,,SCT120,0.28,VWS V14.01,2013-04-19 12:22:00,
2013-04-19 08:27:00,78.1,61.6,30.06,North,0,0.0,0.0,57,0.00,,SCT120,0.28,VWS V14.01,2013-04-19 12:27:00,
2013-04-19 08:32:00,78.3,59.7,30.06,North,0,0.0,0.0,53,0.00,,SCT120,0.28,VWS V14.01,2013-04-19 12:32:00,
2013-04-19 08:37:00,78.4,58.3,30.06,North,0,0.0,0.0,50,0.00,,SCT120,0.28,VWS V14.01,2013-04-19 12:37:00,
2013-04-19 08:42:00,78.6,57.9,30.06,North,0,0.0,0.0,49,0.00,,SCT120,0.28,VWS V14.01,2013-04-19 12:42:00,
2013-04-19 08:47:00,79.5,58.1,30.06,North,0,0.0,0.0,48,0.00,,SCT120,0.28,VWS V14.01,2013-04-19 12:47:00,
2013-04-19 08:52:00,79.5,56.3,30.06,North,0,0.0,0.0,45,0.00,,SCT120,0.28,VWS V14.01,2013-04-19 12:52:00,
2013-04-19 08:57:00,79.2,56.6,30.06,North,0,0.0,0.0,46,0.00,,SCT120,0.28,VWS V14.01,2013-04-19 12:57:00,
2013-04-19 09:02:00,79.2,57.8,30.06,North,0,0.0,0.0,48,0.00,,SCT120,0.28,VWS V14.01,2013-04-19 13:02:00,
2013-04-19 09:07:00,79.0,56.5,30.06,North,0,0.0,0.0,46,0.00,,SCT120,0.28,VWS V14.01,2013-04-19 13:07:00,
2013-04-19 09:12:00,79.0,57.0,30.06,North,0,0.0,0.0,47,0.00,,SCT120,0.28,VWS V14.01,2013-04-19 13:12:00,
2013-04-19 09:17:00,79.2,57.2,30.06,North,0,0.0,0.0,47,0.00,,SCT120,0.28,VWS V14.01,2013-04-19 13:17:00,
2013-04-19 09:22:00,79.3,57.4,30.06,North,0,0.0,0.0,47,0.00,,SCT120,0.28,VWS V14.01,2013-04-19 13:22:00,
2013-04-19 09:27:00,80.2,57.0,30.06,North,0,0.0,0.0,45,0.00,,SCT120,0.28,VWS V14.01,2013-04-19 13:27:00,
2013-04-19 09:32:00,80.6,56.7,30.06,North,0,0.0,0.0,44,0.00,,SCT120,0.28,VWS V14.01,2013-04-19 13:32:00,
2013-04-19 09:37:00,80.2,55.1,30.06,North,0,0.0,0.0,42,0.00,,SCT120,0.28,VWS V14.01,2013-04-19 13:37:00,
2013-04-19 09:42:00,79.9,54.1,30.06,North,0,0.0,0.0,41,0.00,,SCT120,0.28,VWS V14.01,2013-04-19 13:42:00,
2013-04-19 09:47:00,80.2,53.1,30.06,North,0,0.0,0.0,39,0.00,,SCT120,0.28,VWS V14.01,2013-04-19 13:47:00,
2013-04-19 09:52:00,80.2,53.1,30.06,North,0,0.0,0.0,39,0.00,,SCT120,0.28,VWS V14.01,2013-04-19 13:52:00,
2013-04-19 09:57:00,80.4,51.0,30.06,North,0,0.0,0.0,36,0.00,,SCT120,0.28,VWS V14.01,2013-04-19 13:57:00,
2013-04-19 10:02:00,80.6,50.5,30.06,North,0,0.0,0.0,35,0.00,,SCT120,0.28,VWS V14.01,2013-04-19 14:02:00,
2013-04-19 10:07:00,80.6,49.7,30.06,North,0,0.0,0.0,34,0.00,,SCT120,0.28,VWS V14.01,2013-04-19 14:07:00,
2013-04-19 10:12:00,80.8,49.0,30.06,North,0,0.0,0.0,33,0.00,,SCT120,0.28,VWS V14.01,2013-04-19 14:12:00,
2013-04-19 10:17:00,81.5,48.8,30.06,North,0,0.0,0.0,32,0.00,,SCT120,0.28,VWS V14.01,2013-04-19 14:17:00,
2013-04-19 10:22:00,81.7,49.8,30.06,North,0,0.0,0.0,33,0.00,,SCT120,0.28,VWS V14.01,2013-04-19 14:22:00,
2013-04-19 10:27:00,81.0,48.4,30.06,North,0,0.0,0.0,32,0.00,,SCT120,0.28,VWS V14.01,2013-04-19 14:27:00,
2013-04-19 10:32:00,81.3,48.7,30.06,North,0,0.0,0.0,32,0.00,,SCT120,0.28,VWS V14.01,2013-04-19 14:32:00,
2013-04-19 10:38:00,81.7,49.0,30.06,North,0,0.0,0.0,32,0.00,,SCT120,0.28,VWS V14.01,2013-04-19 14:38:00,
2013-04-19 10:43:00,81.3,48.7,30.06,North,0,0.0,0.0,32,0.00,,SCT120,0.28,VWS V14.01,2013-04-19 14:43:00,
2013-04-19 10:48:00,80.8,50.6,30.06,North,0,0.0,0.0,35,0.00,,SCT120,0.28,VWS V14.01,2013-04-19 14:48:00,
2013-04-19 10:53:00,80.8,48.2,30.06,North,0,0.0,0.0,32,0.00,,SCT120,0.28,VWS V14.01,2013-04-19 14:53:00,
2013-04-19 10:58:00,81.0,49.2,30.06,North,0,0.0,0.0,33,0.00,,SCT120,0.28,VWS V14.01,2013-04-19 14:58:00,
2013-04-19 11:03:00,81.1,48.5,30.06,North,0,0.0,0.0,32,0.00,,SCT120,0.28,VWS V14.01,2013-04-19 15:03:00,
2013-04-19 11:08:00,81.5,48.8,30.06,North,0,0.0,0.0,32,0.00,,SCT120,0.28,VWS V14.01,2013-04-19 15:08:00,
2013-04-19 11:13:00,81.5,48.8,30.06,North,0,0.0,0.0,32,0.00,,SCT120,0.28,VWS V14.01,2013-04-19 15:13:00,
2013-04-19 11:18:00,81.5,48.8,30.06,North,0,0.0,0.0,32,0.00,,SCT120,0.28,VWS V14.01,2013-04-19 15:18:00,
2013-04-19 11:23:00,81.7,49.0,30.06,North,0,0.0,0.0,32,0.00,,SCT120,0.28,VWS V14.01,2013-04-19 15:23:00,
2013-04-19 11:28:00,82.2,48.6,30.06,North,0,0.0,0.0,31,0.00,,SCT120,0.28,VWS V14.01,2013-04-19 15:28:00,
2013-04-19 11:33:00,82.8,48.2,30.06,North,0,0.0,0.0,30,0.00,,SCT120,0.28,VWS V14.01,2013-04-19 15:33:00,
2013-04-19 11:38:00,82.2,47.7,30.06,North,0,0.0,0.0,30,0.00,,SCT120,0.28,VWS V14.01,2013-04-19 15:38:00,
2013-04-19 11:43:00,82.4,47.0,30.06,North,0,0.0,0.0,29,0.00,,SCT120,0.28,VWS V14.01,2013-04-19 15:43:00,
2013-04-19 11:48:00,82.6,48.0,30.06,North,0,0.0,0.0,30,0.00,,SCT120,0.28,VWS V14.01,2013-04-19 15:48:00,
2013-04-19 11:53:00,82.2,48.6,30.06,North,0,0.0,0.0,31,0.00,,SCT120,0.28,VWS V14.01,2013-04-19 15:53:00,
2013-04-19 11:58:00,81.5,47.1,30.06,North,0,0.0,0.0,30,0.00,,SCT120,0.28,VWS V14.01,2013-04-19 15:58:00,
2013-04-19 12:03:00,81.5,47.1,30.06,North,0,0.0,0.0,30,0.00,,SCT120,0.28,VWS V14.01,2013-04-19 16:03:00,
2013-04-19 12:08:00,81.7,48.1,30.06,North,0,0.0,0.0,31,0.00,,SCT120,0.28,VWS V14.01,2013-04-19 16:08:00,
2013-04-19 12:13:00,82.4,47.0,30.06,North,0,0.0,0.0,29,0.00,,SCT120,0.28,VWS V14.01,2013-04-19 16:13:00,
2013-04-19 12:18:00,82.9,47.5,30.06,North,0,0.0,0.0,29,0.00,,SCT120,0.28,VWS V14.01,2013-04-19 16:18:00,
2013-04-19 12:23:00,82.8,47.3,30.06,North,0,0.0,0.0,29,0.00,,SCT120,0.28,VWS V14.01,2013-04-19 16:23:00,
2013-04-19 12:28:00,82.9,47.5,30.06,North,0,0.0,0.0,29,0.00,,SCT120,0.28,VWS V14.01,2013-04-19 16:28:00,
2013-04-19 12:33:00,83.5,47.0,30.06,North,0,0.0,0.0,28,0.00,,SCT120,0.28,VWS V14.01,2013-04-19 16:33:00,
2013-04-19 12:38:00,82.8,47.3,30.06,North,0,0.0,0.0,29,0.00,,SCT120,0.28,VWS V14.01,2013-04-19 16:38:00,
2013-04-19 12:43:00,82.9,45.6,30.03,North,0,0.0,0.0,27,0.00,,SCT120,0.28,VWS V14.01,2013-04-19 16:43:00,
2013-04-19 12:48:00,83.5,45.0,30.03,North,0,0.0,0.0,26,0.00,,SCT120,0.28,VWS V14.01,2013-04-19 16:48:00,
2013-04-19 12:53:00,84.0,46.5,30.03,North,0,0.0,0.0,27,0.00,,SCT120,0.28,VWS V14.01,2013-04-19 16:53:00,
2013-04-19 12:58:00,84.2,47.6,30.03,North,0,0.0,0.0,28,0.00,,SCT120,0.28,VWS V14.01,2013-04-19 16:58:00,
2013-04-19 13:03:00,83.7,48.1,30.03,North,0,0.0,0.0,29,0.00,,SCT120,0.28,VWS V14.01,2013-04-19 17:03:00,
2013-04-19 13:08:00,83.3,46.8,30.03,North,0,0.0,0.0,28,0.00,,SCT120,0.28,VWS V14.01,2013-04-19 17:08:00,
2013-04-19 13:13:00,83.3,47.8,30.03,North,0,0.0,0.0,29,0.00,,SCT120,0.28,VWS V14.01,2013-04-19 17:13:00,
2013-04-19 13:18:00,83.3,47.8,30.03,North,0,0.0,0.0,29,0.00,,SCT120,0.28,VWS V14.01,2013-04-19 17:18:00,
2013-04-19 13:23:00,84.0,48.4,30.03,North,0,0.0,0.0,29,0.00,,SCT120,0.28,VWS V14.01,2013-04-19 17:23:00,
2013-04-19 13:28:00,84.0,47.4,30.03,North,0,0.0,0.0,28,0.00,,SCT120,0.28,VWS V14.01,2013-04-19 17:28:00,
2013-04-19 13:33:00,83.7,47.1,30.03,North,0,0.0,0.0,28,0.00,,SCT120,0.28,VWS V14.01,2013-04-19 17:33:00,
2013-04-19 13:38:00,84.0,48.4,30.03,North,0,0.0,0.0,29,0.00,,SCT120,0.28,VWS V14.01,2013-04-19 17:38:00,
2013-04-19 13:43:00,84.7,47.1,30.03,North,0,0.0,0.0,27,0.00,,SCT120,0.28,VWS V14.01,2013-04-19 17:43:00,
2013-04-19 13:48:00,85.1,45.4,30.03,North,0,0.0,0.0,25,0.00,,SCT120,0.28,VWS V14.01,2013-04-19 17:48:00,
2013-04-19 13:53:00,84.6,44.9,30.03,North,0,0.0,0.0,25,0.00,,SCT120,0.28,VWS V14.01,2013-04-19 17:53:00,
2013-04-19 13:58:00,84.7,46.1,30.03,North,0,0.0,0.0,26,0.00,,SCT120,0.28,VWS V14.01,2013-04-19 17:58:00,
2013-04-19 14:03:00,84.7,45.1,30.03,North,0,0.0,0.0,25,0.00,,SCT120,0.28,VWS V14.01,2013-04-19 18:03:00,
2013-04-19 14:08:00,84.4,46.8,30.03,North,0,0.0,0.0,27,0.00,,SCT120,0.28,VWS V14.01,2013-04-19 18:08:00,
2013-04-19 14:13:00,84.6,44.9,30.03,North,0,0.0,0.0,25,0.00,,SCT120,0.28,VWS V14.01,2013-04-19 18:13:00,
2013-04-19 14:18:00,84.6,47.9,30.03,North,0,0.0,0.0,28,0.00,,SCT120,0.28,VWS V14.01,2013-04-19 18:18:00,
2013-04-19 14:23:00,83.8,45.3,30.03,North,0,0.0,0.0,26,0.00,,SCT120,0.28,VWS V14.01,2013-04-19 18:23:00,
2013-04-19 14:28:00,84.2,46.6,30.03,North,0,0.0,0.0,27,0.00,,SCT120,0.28,VWS V14.01,2013-04-19 18:28:00,
2013-04-19 14:33:00,83.3,46.8,30.03,North,0,0.0,0.0,28,0.00,,SCT120,0.28,VWS V14.01,2013-04-19 18:33:00,
2013-04-19 14:38:00,82.9,47.5,30.03,North,0,0.0,0.0,29,0.00,,SCT120,0.28,VWS V14.01,2013-04-19 18:38:00,
2013-04-19 14:43:00,82.6,48.0,30.00,North,0,0.0,0.0,30,0.00,,SCT120,0.28,VWS V14.01,2013-04-19 18:43:00,
2013-04-19 14:48:00,82.4,47.0,30.00,North,0,0.0,0.0,29,0.00,,SCT120,0.28,VWS V14.01,2013-04-19 18:48:00,
2013-04-19 14:53:00,82.4,47.0,30.00,North,0,0.0,0.0,29,0.00,,SCT120,0.28,VWS V14.01,2013-04-19 18:53:00,
2013-04-19 14:58:00,82.8,47.3,30.00,North,0,0.0,0.0,29,0.00,,SCT120,0.28,VWS V14.01,2013-04-19 18:58:00,
2013-04-19 15:03:00,82.9,47.5,30.00,North,0,0.0,0.0,29,0.00,,SCT120,0.28,VWS V14.01,2013-04-19 19:03:00,
2013-04-19 15:08:00,82.9,47.5,30.00,North,0,0.0,0.0,29,0.00,,SCT120,0.28,VWS V14.01,2013-04-19 19:08:00,
2013-04-19 15:13:00,82.4,47.9,30.00,North,0,0.0,0.0,30,0.00,,SCT120,0.28,VWS V14.01,2013-04-19 19:13:00,
2013-04-19 15:18:00,82.2,47.7,30.00,North,0,0.0,0.0,30,0.00,,SCT120,0.28,VWS V14.01,2013-04-19 19:18:00,
2013-04-19 15:23:00,81.7,47.3,30.00,North,0,0.0,0.0,30,0.00,,SCT120,0.28,VWS V14.01,2013-04-19 19:23:00,
2013-04-19 15:29:00,82.0,48.5,30.00,North,0,0.0,0.0,31,0.00,,SCT120,0.28,VWS V14.01,2013-04-19 19:29:00,
2013-04-19 15:33:00,82.6,48.0,30.00,North,0,0.0,0.0,30,0.00,,SCT120,0.28,VWS V14.01,2013-04-19 19:33:00,
2013-04-19 15:39:00,82.4,47.9,30.00,North,0,0.0,0.0,30,0.00,,SCT120,0.28,VWS V14.01,2013-04-19 19:39:00,
2013-04-19 15:44:00,82.8,47.3,30.00,North,0,0.0,0.0,29,0.00,,SCT120,0.28,VWS V14.01,2013-04-19 19:44:00,
2013-04-19 15:49:00,83.1,47.6,30.00,North,0,0.0,0.0,29,0.00,,SCT120,0.28,VWS V14.01,2013-04-19 19:49:00,
2013-04-19 15:54:00,83.5,46.0,30.00,North,0,0.0,0.0,27,0.00,,SCT120,0.28,VWS V14.01,2013-04-19 19:54:00,
2013-04-19 15:59:00,83.5,47.9,30.00,North,0,0.0,0.0,29,0.00,,SCT120,0.28,VWS V14.01,2013-04-19 19:59:00,
2013-04-19 16:04:00,83.7,47.1,30.00,North,0,0.0,0.0,28,0.00,,SCT120,0.28,VWS V14.01,2013-04-19 20:04:00,
2013-04-19 16:09:00,83.7,47.1,30.00,North,0,0.0,0.0,28,0.00,,SCT120,0.28,VWS V14.01,2013-04-19 20:09:00,
2013-04-19 16:14:00,83.7,48.1,30.00,North,0,0.0,0.0,29,0.00,,SCT120,0.28,VWS V14.01,2013-04-19 20:14:00,
2013-04-19 16:19:00,83.7,48.1,30.00,North,0,0.0,0.0,29,0.00,,SCT120,0.28,VWS V14.01,2013-04-19 20:19:00,
2013-04-19 16:24:00,82.9,44.6,30.03,North,0,0.0,0.0,26,0.00,,SCT120,0.28,VWS V14.01,2013-04-19 20:24:00,
2013-04-19 16:29:00,82.4,45.1,30.03,North,0,0.0,0.0,27,0.00,,SCT120,0.28,VWS V14.01,2013-04-19 20:29:00,
2013-04-19 16:34:00,82.6,44.3,30.03,North,0,0.0,0.0,26,0.00,,SCT120,0.28,VWS V14.01,2013-04-19 20:34:00,
2013-04-19 16:39:00,82.6,45.2,30.00,North,0,0.0,0.0,27,0.00,,SCT120,0.28,VWS V14.01,2013-04-19 20:39:00,
2013-04-19 16:44:00,82.8,47.3,30.00,North,0,0.0,0.0,29,0.00,,SCT120,0.28,VWS V14.01,2013-04-19 20:44:00,
2013-04-19 16:49:00,82.4,44.1,30.00,North,0,0.0,0.0,26,0.00,,SCT120,0.28,VWS V14.01,2013-04-19 20:49:00,
2013-04-19 16:54:00,82.4,46.1,30.00,North,0,0.0,0.0,28,0.00,,SCT120,0.28,VWS V14.01,2013-04-19 20:54:00,
2013-04-19 16:59:00,82.8,46.4,30.00,North,0,0.0,0.0,28,0.00,,SCT120,0.28,VWS V14.01,2013-04-19 20:59:00,
2013-04-19 17:04:00,82.8,47.3,30.00,North,0,0.0,0.0,29,0.00,,SCT120,0.28,VWS V14.01,2013-04-19 21:04:00,
2013-04-19 17:09:00,82.6,47.1,30.00,North,0,0.0,0.0,29,0.00,,SCT120,0.28,VWS V14.01,2013-04-19 21:09:00,
2013-04-19 17:14:00,82.6,47.1,30.00,North,0,0.0,0.0,29,0.00,,SCT120,0.28,VWS V14.01,2013-04-19 21:14:00,
2013-04-19 17:19:00,82.6,47.1,30.00,North,0,0.0,0.0,29,0.00,,SCT120,0.28,VWS V14.01,2013-04-19 21:19:00,
2013-04-19 17:24:00,82.6,47.1,30.00,North,0,0.0,0.0,29,0.00,,SCT120,0.28,VWS V14.01,2013-04-19 21:24:00,
2013-04-19 17:29:00,82.8,48.2,30.00,North,0,0.0,0.0,30,0.00,,SCT120,0.28,VWS V14.01,2013-04-19 21:29:00,
2013-04-19 17:34:00,82.4,47.9,30.00,North,0,0.0,0.0,30,0.00,,SCT120,0.28,VWS V14.01,2013-04-19 21:34:00,
2013-04-19 17:39:00,82.0,48.5,30.00,North,0,0.0,0.0,31,0.00,,SCT120,0.28,VWS V14.01,2013-04-19 21:39:00,
2013-04-19 17:44:00,81.9,48.3,30.00,North,0,0.0,0.0,31,0.00,,SCT120,0.28,VWS V14.01,2013-04-19 21:44:00,
2013-04-19 17:49:00,82.0,48.5,30.00,North,0,0.0,0.0,31,0.00,,SCT120,0.28,VWS V14.01,2013-04-19 21:49:00,
2013-04-19 17:54:00,81.7,49.0,30.00,North,0,0.0,0.0,32,0.00,,SCT120,0.28,VWS V14.01,2013-04-19 21:54:00,
2013-04-19 17:59:00,81.5,48.8,30.00,North,0,0.0,0.0,32,0.00,,SCT120,0.28,VWS V14.01,2013-04-19 21:59:00,
2013-04-19 18:04:00,81.3,48.7,30.00,North,0,0.0,0.0,32,0.00,,SCT120,0.28,VWS V14.01,2013-04-19 22:04:00,
2013-04-19 18:09:00,81.0,48.4,30.03,North,0,0.0,0.0,32,0.00,,SCT120,0.28,VWS V14.01,2013-04-19 22:09:00,
2013-04-19 18:14:00,81.0,48.4,30.03,North,0,0.0,0.0,32,0.00,,SCT120,0.28,VWS V14.01,2013-04-19 22:14:00,
2013-04-19 18:19:00,81.0,48.4,30.03,North,0,0.0,0.0,32,0.00,,SCT120,0.28,VWS V14.01,2013-04-19 22:19:00,
2013-04-19 18:24:00,80.8,48.2,30.03,North,0,0.0,0.0,32,0.00,,SCT120,0.28,VWS V14.01,2013-04-19 22:24:00,
2013-04-19 18:29:00,80.8,47.4,30.03,North,0,0.0,0.0,31,0.00,,SCT120,0.28,VWS V14.01,2013-04-19 22:29:00,
2013-04-19 18:34:00,80.8,47.4,30.03,North,0,0.0,0.0,31,0.00,,SCT120,0.28,VWS V14.01,2013-04-19 22:34:00,
2013-04-19 18:39:00,80.4,47.9,30.03,North,0,0.0,0.0,32,0.00,,SCT120,0.28,VWS V14.01,2013-04-19 22:39:00,
2013-04-19 18:44:00,80.4,48.7,30.03,North,0,0.0,0.0,33,0.00,,SCT120,0.28,VWS V14.01,2013-04-19 22:44:00,
2013-04-19 18:49:00,80.2,49.3,30.03,North,0,0.0,0.0,34,0.00,,SCT120,0.28,VWS V14.01,2013-04-19 22:49:00,
2013-04-19 18:54:00,80.2,49.3,30.03,North,0,0.0,0.0,34,0.00,,SCT120,0.28,VWS V14.01,2013-04-19 22:54:00,
2013-04-19 18:59:00,79.9,49.0,30.03,North,0,0.0,0.0,34,0.00,,SCT120,0.28,VWS V14.01,2013-04-19 22:59:00,
2013-04-19 19:04:00,79.9,49.0,30.03,North,0,0.0,0.0,34,0.00,,SCT120,0.28,VWS V14.01,2013-04-19 23:04:00,
2013-04-19 19:09:00,79.9,49.0,30.03,North,0,0.0,0.0,34,0.00,,SCT120,0.28,VWS V14.01,2013-04-19 23:09:00,
2013-04-19 19:14:00,79.9,49.0,30.03,North,0,0.0,0.0,34,0.00,,SCT120,0.28,VWS V14.01,2013-04-19 23:14:00,
2013-04-19 19:19:00,79.9,49.0,30.03,North,0,0.0,0.0,34,0.00,,SCT120,0.28,VWS V14.01,2013-04-19 23:19:00,
2013-04-19 19:24:00,79.7,49.7,30.03,North,0,0.0,0.0,35,0.00,,SCT120,0.28,VWS V14.01,2013-04-19 23:24:00,
2013-04-19 19:29:00,79.7,49.7,30.03,North,0,0.0,0.0,35,0.00,,SCT120,0.28,VWS V14.01,2013-04-19 23:29:00,
2013-04-19 19:34:00,79.5,49.5,30.03,North,0,0.0,0.0,35,0.00,,SCT120,0.28,VWS V14.01,2013-04-19 23:34:00,
2013-04-19 19:39:00,79.5,48.7,30.03,North,0,0.0,0.0,34,0.00,,SCT120,0.28,VWS V14.01,2013-04-19 23:39:00,
2013-04-19 19:44:00,79.5,49.5,30.03,North,0,0.0,0.0,35,0.00,,SCT120,0.28,VWS V14.01,2013-04-19 23:44:00,
2013-04-19 19:49:00,79.5,49.5,30.03,North,0,0.0,0.0,35,0.00,,SCT120,0.28,VWS V14.01,2013-04-19 23:49:00,
2013-04-19 19:54:00,79.3,49.3,30.06,North,0,0.0,0.0,35,0.00,,SCT120,0.28,VWS V14.01,2013-04-19 23:54:00,
2013-04-19 19:59:00,79.5,50.2,30.06,North,0,0.0,0.0,36,0.00,,SCT120,0.28,VWS V14.01,2013-04-19 23:59:00,
2013-04-19 20:05:00,79.5,50.2,30.06,North,0,0.0,0.0,36,0.00,,SCT120,0.28,VWS V14.01,2013-04-20 00:05:00,
2013-04-19 20:10:00,79.3,50.8,30.06,North,0,0.0,0.0,37,0.00,,SCT120,0.28,VWS V14.01,2013-04-20 00:10:00,
2013-04-19 20:15:00,79.3,51.5,30.06,North,0,0.0,0.0,38,0.00,,SCT120,0.28,VWS V14.01,2013-04-20 00:15:00,
2013-04-19 20:20:00,79.3,50.8,30.06,North,0,0.0,0.0,37,0.00,,SCT120,0.28,VWS V14.01,2013-04-20 00:20:00,
2013-04-19 20:25:00,79.2,51.4,30.06,North,0,0.0,0.0,38,0.00,,SCT120,0.28,VWS V14.01,2013-04-20 00:25:00,
2013-04-19 20:30:00,79.2,52.8,30.06,North,0,0.0,0.0,40,0.00,,SCT120,0.28,VWS V14.01,2013-04-20 00:30:00,
2013-04-19 20:35:00,79.2,53.5,30.06,North,0,0.0,0.0,41,0.00,,SCT120,0.28,VWS V14.01,2013-04-20 00:35:00,
2013-04-19 20:40:00,79.0,54.0,30.06,North,0,0.0,0.0,42,0.00,,SCT120,0.28,VWS V14.01,2013-04-20 00:40:00,
2013-04-19 20:45:00,78.8,53.8,30.06,North,0,0.0,0.0,42,0.00,,SCT120,0.28,VWS V14.01,2013-04-20 00:45:00,
2013-04-19 20:50:00,79.0,54.0,30.06,North,0,0.0,0.0,42,0.00,,SCT120,0.28,VWS V14.01,2013-04-20 00:50:00,
2013-04-19 20:55:00,78.8,54.4,30.06,North,0,0.0,0.0,43,0.00,,SCT120,0.28,VWS V14.01,2013-04-20 00:55:00,
2013-04-19 21:00:00,78.6,56.1,30.06,North,0,0.0,0.0,46,0.00,,SCT120,0.28,VWS V14.01,2013-04-20 01:00:00,
2013-04-19 21:05:00,78.4,59.4,30.06,North,0,0.0,0.0,52,0.00,,SCT120,0.28,VWS V14.01,2013-04-20 01:05:00,
2013-04-19 21:10:00,78.3,61.3,30.06,North,0,0.0,0.0,56,0.00,,SCT120,0.28,VWS V14.01,2013-04-20 01:10:00,
2013-04-19 21:15:00,78.1,62.1,30.06,North,0,0.0,0.0,58,0.00,,SCT120,0.28,VWS V14.01,2013-04-20 01:15:00,
2013-04-19 21:20:00,78.1,62.6,30.06,North,0,0.0,0.0,59,0.00,,SCT120,0.28,VWS V14.01,2013-04-20 01:20:00,
2013-04-19 21:25:00,77.9,62.4,30.06,North,0,0.0,0.0,59,0.00,,SCT120,0.28,VWS V14.01,2013-04-20 01:25:00,
2013-04-19 21:30:00,77.9,62.4,30.06,North,0,0.0,0.0,59,0.00,,SCT120,0.28,VWS V14.01,2013-04-20 01:30:00,
2013-04-19 21:35:00,77.7,61.8,30.06,North,0,0.0,0.0,58,0.00,,SCT120,0.28,VWS V14.01,2013-04-20 01:35:00,
2013-04-19 21:40:00,77.7,60.8,30.06,North,0,0.0,0.0,56,0.00,,SCT120,0.28,VWS V14.01,2013-04-20 01:40:00,
2013-04-19 21:45:00,77.5,61.1,30.06,North,0,0.0,0.0,57,0.00,,SCT120,0.28,VWS V14.01,2013-04-20 01:45:00,
2013-04-19 21:50:00,77.5,60.6,30.06,North,0,0.0,0.0,56,0.00,,SCT120,0.28,VWS V14.01,2013-04-20 01:50:00,
2013-04-19 21:55:00,77.5,60.6,30.09,North,0,0.0,0.0,56,0.00,,SCT120,0.28,VWS V14.01,2013-04-20 01:55:00,
2013-04-19 22:00:00,77.5,60.1,30.09,North,0,0.0,0.0,55,0.00,,SCT120,0.28,VWS V14.01,2013-04-20 02:00:00,
2013-04-19 22:05:00,77.5,60.1,30.09,North,0,0.0,0.0,55,0.00,,SCT120,0.28,VWS V14.01,2013-04-20 02:05:00,
2013-04-19 22:10:00,77.5,60.1,30.06,North,0,0.0,0.0,55,0.00,,SCT120,0.28,VWS V14.01,2013-04-20 02:10:00,
2013-04-19 22:15:00,77.5,60.6,30.06,North,0,0.0,0.0,56,0.00,,SCT120,0.28,VWS V14.01,2013-04-20 02:15:00,
2013-04-19 22:20:00,77.5,61.1,30.06,North,0,0.0,0.0,57,0.00,,SCT120,0.28,VWS V14.01,2013-04-20 02:20:00,
2013-04-19 22:25:00,77.4,62.9,30.09,North,0,0.0,0.0,61,0.00,,SCT120,0.28,VWS V14.01,2013-04-20 02:25:00,
2013-04-19 22:30:00,77.0,63.5,30.09,North,0,0.0,0.0,63,0.00,,SCT120,0.28,VWS V14.01,2013-04-20 02:30:00,
2013-04-19 22:35:00,77.0,64.8,30.09,North,0,0.0,0.0,66,0.00,,SCT120,0.28,VWS V14.01,2013-04-20 02:35:00,
2013-04-19 22:40:00,76.5,64.7,30.09,North,0,0.0,0.0,67,0.00,,SCT120,0.28,VWS V14.01,2013-04-20 02:40:00,
2013-04-19 22:45:00,76.5,65.1,30.09,North,0,0.0,0.0,68,0.00,,SCT120,0.28,VWS V14.01,2013-04-20 02:45:00,
2013-04-19 22:50:00,76.6,65.3,30.09,North,0,0.0,0.0,68,0.00,,SCT120,0.28,VWS V14.01,2013-04-20 02:50:00,
2013-04-19 22:55:00,76.5,65.5,30.09,North,0,0.0,0.0,69,0.00,,SCT120,0.28,VWS V14.01,2013-04-20 02:55:00,
2013-04-19 23:00:00,76.5,65.5,30.09,North,0,0.0,0.0,69,0.00,,SCT120,0.28,VWS V14.01,2013-04-20 03:00:00,
2013-04-19 23:05:00,76.6,65.7,30.09,North,0,0.0,0.0,69,0.00,,SCT120,0.28,VWS V14.01,2013-04-20 03:05:00,
2013-04-19 23:10:00,76.6,65.7,30.09,North,0,0.0,0.0,69,0.00,,SCT120,0.28,VWS V14.01,2013-04-20 03:10:00,
2013-04-19 23:15:00,76.5,65.5,30.09,North,0,0.0,0.0,69,0.00,,SCT120,0.28,VWS V14.01,2013-04-20 03:15:00,
2013-04-19 23:20:00,76.5,65.1,30.09,North,0,0.0,0.0,68,0.00,,SCT120,0.28,VWS V14.01,2013-04-20 03:20:00,
2013-04-19 23:25:00,76.3,65.4,30.09,North,0,0.0,0.0,69,0.00,,SCT120,0.28,VWS V14.01,2013-04-20 03:25:00,
2013-04-19 23:30:00,76.3,65.4,30.09,North,0,0.0,0.0,69,0.00,,SCT120,0.28,VWS V14.01,2013-04-20 03:30:00,
2013-04-19 23:35:00,76.3,65.4,30.09,North,0,0.0,0.0,69,0.00,,SCT120,0.28,VWS V14.01,2013-04-20 03:35:00,
2013-04-19 23:40:00,76.3,65.4,30.09,North,0,0.0,0.0,69,0.00,,SCT120,0.28,VWS V14.01,2013-04-20 03:40:00,
2013-04-19 23:45:00,76.3,65.8,30.09,North,0,0.0,0.0,70,0.00,,SCT120,0.28,VWS V14.01,2013-04-20 03:45:00,
2013-04-19 23:50:00,76.3,65.8,30.09,North,0,0.0,0.0,70,0.00,,SCT120,0.28,VWS V14.01,2013-04-20 03:50:00,
2013-04-19 23:55:00,75.9,65.0,30.06,North,0,0.0,0.0,69,0.00,,SCT120,0.28,VWS V14.01,2013-04-20 03:55:00,